Time;durP1;ratioP1;P1;durP2;ratioP2;P2;SDS_P1;SDS_P2;PMS_P1;PMS_P2;Temp;Humidity;BMP_temperature;BMP_pressure;BME280_temperature;BME280_humidity;BME280_pressure;Samples;Min_cycle;Max_cycle;Signal;HPM_P1;HPM_P2
2021/01/10 00:02:00;;;;;;;44.10;27.22;;;;;;;1.24;72.28;100884.62;1712456;84;21252;-55
2021/01/10 00:05:08;;;;;;;49.83;29.10;;;;;;;1.24;72.32;100887.31;1687879;85;21194;-55
2021/01/10 00:08:13;;;;;;;45.52;27.75;;;;;;;1.25;72.31;100887.20;1682353;84;21224;-55
2021/01/10 00:11:19;;;;;;;49.38;28.77;;;;;;;1.26;72.28;100887.61;1717318;82;21287;-55
2021/01/10 00:14:24;;;;;;;48.35;29.23;;;;;;;1.24;72.22;100882.80;1695251;83;21351;-55
2021/01/10 00:17:30;;;;;;;48.42;28.38;;;;;;;1.24;72.21;100884.62;1727865;83;21717;-55
2021/01/10 00:20:38;;;;;;;47.60;28.47;;;;;;;1.20;72.17;100879.94;1727345;83;21425;-55
2021/01/10 00:23:43;;;;;;;46.83;28.32;;;;;;;1.18;72.17;100885.92;1695099;83;21420;-55
2021/01/10 00:26:48;;;;;;;42.35;27.05;;;;;;;1.16;72.26;100885.63;1727758;83;21389;-55
2021/01/10 00:29:57;;;;;;;45.98;27.48;;;;;;;1.16;72.29;100883.80;1727816;81;21393;-56
2021/01/10 00:33:03;;;;;;;47.50;28.35;;;;;;;1.14;72.31;100880.33;1695050;83;21868;-56
2021/01/10 00:36:09;;;;;;;42.27;27.13;;;;;;;1.14;72.33;100885.73;1727729;83;21243;-55
2021/01/10 00:39:14;;;;;;;45.00;27.98;;;;;;;1.14;72.37;100882.19;1712316;82;21220;-55
2021/01/10 00:42:20;;;;;;;44.55;26.65;;;;;;;1.13;72.39;100890.75;1727641;83;21875;-56
2021/01/10 00:45:26;;;;;;;48.38;28.87;;;;;;;1.11;72.35;100887.29;1727636;83;21224;-55
2021/01/10 00:48:32;;;;;;;49.58;30.00;;;;;;;1.13;72.41;100900.66;1695242;83;21347;-56
2021/01/10 00:51:38;;;;;;;42.38;25.40;;;;;;;1.14;72.42;100899.20;1663775;86;21390;-56
2021/01/10 00:54:45;;;;;;;46.80;28.75;;;;;;;1.18;72.31;100895.83;1695270;83;21226;-55
2021/01/10 00:57:51;;;;;;;42.62;27.00;;;;;;;1.20;72.23;100889.86;1727675;81;21354;-55
2021/01/10 01:00:57;;;;;;;46.05;27.35;;;;;;;1.19;72.17;100893.53;1727791;83;21358;-54
2021/01/10 01:04:02;;;;;;;45.40;27.25;;;;;;;1.15;72.17;100890.64;1695225;83;21348;-55
2021/01/10 01:07:07;;;;;;;44.70;26.00;;;;;;;1.15;72.16;100896.03;1727822;83;21357;-55
2021/01/10 01:10:16;;;;;;;45.15;28.15;;;;;;;1.12;72.12;100894.90;1727895;83;21259;-55
2021/01/10 01:13:21;;;;;;;44.45;27.02;;;;;;;1.06;72.14;100889.42;1711328;82;21279;-55
2021/01/10 01:16:25;;;;;;;41.08;25.37;;;;;;;1.03;72.25;100895.53;1687653;85;21242;-55
2021/01/10 01:19:33;;;;;;;44.03;27.67;;;;;;;1.04;72.27;100898.13;1682735;84;21770;-56
2021/01/10 01:22:38;;;;;;;43.20;26.35;;;;;;;1.04;72.32;100898.13;1712111;84;21216;-55
2021/01/10 01:25:44;;;;;;;39.15;25.08;;;;;;;1.10;72.29;100899.05;1687874;85;21257;-55
2021/01/10 01:28:49;;;;;;;45.43;28.23;;;;;;;1.15;72.24;100896.91;1682724;84;21391;-55
2021/01/10 01:31:54;;;;;;;40.70;25.72;;;;;;;1.20;72.10;100896.12;1712333;84;21228;-56
2021/01/10 01:34:59;;;;;;;43.60;27.35;;;;;;;1.22;72.09;100898.72;1712224;82;21267;-55
2021/01/10 01:38:04;;;;;;;46.98;28.25;;;;;;;1.24;72.05;100894.05;1687712;83;21217;-56
2021/01/10 01:41:09;;;;;;;43.98;27.25;;;;;;;1.30;71.96;100898.55;1682892;85;21379;-55
2021/01/10 01:44:15;;;;;;;43.13;26.68;;;;;;;1.36;71.86;100894.59;1712115;82;21279;-55
2021/01/10 01:47:26;;;;;;;42.78;26.27;;;;;;;1.40;71.77;100899.66;1712518;84;21331;-55
2021/01/10 01:50:32;;;;;;;44.35;26.23;;;;;;;1.40;71.67;100901.01;1687608;83;21236;-55
2021/01/10 01:53:40;;;;;;;42.88;27.20;;;;;;;1.37;71.65;100897.17;1683295;84;21503;-55
2021/01/10 01:56:46;;;;;;;41.58;25.25;;;;;;;1.34;71.62;100898.73;1719920;82;21374;-55
2021/01/10 01:59:54;;;;;;;41.75;25.72;;;;;;;1.28;71.60;100902.33;1687792;83;21213;-55
2021/01/10 02:03:01;;;;;;;40.67;25.00;;;;;;;1.25;71.71;100904.73;1682960;84;21264;-55
2021/01/10 02:06:09;;;;;;;45.85;26.90;;;;;;;1.26;71.70;100905.61;1712453;84;21200;-55
2021/01/10 02:09:16;;;;;;;42.98;25.90;;;;;;;1.30;71.67;100898.55;1687861;83;21205;-55
2021/01/10 02:12:22;;;;;;;43.08;25.60;;;;;;;1.36;71.58;100908.91;1685618;79;21371;-54
2021/01/10 02:15:29;;;;;;;46.85;26.93;;;;;;;1.41;71.44;100907.28;1713554;83;21213;-54
2021/01/10 02:18:38;;;;;;;43.92;26.12;;;;;;;1.40;71.37;100904.17;1713399;83;21237;-55
2021/01/10 02:21:44;;;;;;;45.15;26.62;;;;;;;1.41;71.29;100909.97;1713886;83;21320;-54
2021/01/10 02:24:50;;;;;;;41.83;24.45;;;;;;;1.40;71.24;100917.66;1713417;83;21264;-56
2021/01/10 02:27:55;;;;;;;43.13;26.65;;;;;;;1.37;71.22;100917.41;1713352;83;21253;-55
2021/01/10 02:31:01;;;;;;;45.38;27.67;;;;;;;1.34;71.23;100906.83;1713609;83;21226;-56
2021/01/10 02:34:06;;;;;;;41.15;26.15;;;;;;;1.32;71.25;100914.15;1713883;83;21248;-55
2021/01/10 02:37:31;;;;;;;39.55;26.10;;;;;;;1.31;71.22;100912.91;1712498;83;21617;-54
2021/01/10 02:40:46;;;;;;;44.48;26.77;;;;;;;1.33;71.29;100915.02;1712868;83;21230;-55
2021/01/10 02:44:13;;;;;;;42.80;27.17;;;;;;;1.40;71.25;100919.89;1713916;83;21265;-56
2021/01/10 02:47:18;;;;;;;40.50;25.65;;;;;;;1.39;71.09;100919.52;1714270;83;21383;-55
2021/01/10 02:50:23;;;;;;;44.05;26.15;;;;;;;1.35;71.07;100922.03;1718669;83;21664;-56
2021/01/10 02:53:29;;;;;;;42.38;25.60;;;;;;;1.27;71.18;100921.68;1688879;84;21298;-54
2021/01/10 02:56:38;;;;;;;45.73;27.13;;;;;;;1.23;71.33;100919.30;1689174;84;21320;-55
2021/01/10 02:59:50;;;;;;;44.65;25.85;;;;;;;1.17;71.45;100912.48;1689243;84;21559;-55
2021/01/10 03:02:55;;;;;;;41.95;26.07;;;;;;;1.18;71.58;100908.83;1689407;84;21372;-55
2021/01/10 03:06:01;;;;;;;42.58;25.30;;;;;;;1.22;71.64;100902.25;1689377;84;21231;-54
2021/01/10 03:09:07;;;;;;;39.00;23.90;;;;;;;1.30;71.62;100905.29;1689556;84;21251;-54
2021/01/10 03:12:32;;;;;;;40.83;25.48;;;;;;;1.37;71.48;100898.52;1672647;84;21228;-55
2021/01/10 03:15:37;;;;;;;41.85;26.02;;;;;;;1.40;71.37;100903.70;1694206;83;21256;-55
2021/01/10 03:18:42;;;;;;;43.63;26.35;;;;;;;1.38;71.26;100900.23;1674950;84;21244;-54
2021/01/10 03:21:47;;;;;;;43.73;26.00;;;;;;;1.34;71.31;100901.91;1720140;83;21346;-54
2021/01/10 03:24:53;;;;;;;46.65;26.55;;;;;;;1.29;71.34;100904.05;1695110;83;21214;-54
2021/01/10 03:27:59;;;;;;;42.67;26.30;;;;;;;1.22;71.41;100906.30;1728013;81;21223;-55
2021/01/10 03:31:04;;;;;;;45.33;27.67;;;;;;;1.19;71.52;100909.70;1695222;84;21355;-55
2021/01/10 03:34:09;;;;;;;41.83;26.68;;;;;;;1.18;71.59;100916.05;1727845;81;21232;-55
2021/01/10 03:37:15;;;;;;;42.93;27.62;;;;;;;1.18;71.65;100918.27;1695141;84;21351;-55
2021/01/10 03:40:21;;;;;;;40.10;25.50;;;;;;;1.24;71.66;100920.55;1727821;81;21445;-54
2021/01/10 03:43:26;;;;;;;46.55;26.80;;;;;;;1.31;71.61;100928.61;1727831;81;21421;-56
2021/01/10 03:46:32;;;;;;;40.60;26.80;;;;;;;1.38;71.51;100928.56;1727203;83;21255;-54
2021/01/10 03:49:38;;;;;;;39.73;24.77;;;;;;;1.47;71.43;100933.31;1727635;81;21374;-55
2021/01/10 03:52:45;;;;;;;43.68;26.48;;;;;;;1.54;71.24;100941.85;1726909;81;21793;-55
2021/01/10 03:55:50;;;;;;;41.73;25.50;;;;;;;1.57;71.10;100940.29;1694959;84;21323;-56
2021/01/10 03:58:56;;;;;;;41.95;26.52;;;;;;;1.60;71.03;100936.53;1727850;81;21271;-54
2021/01/10 04:02:01;;;;;;;46.95;26.73;;;;;;;1.62;70.93;100935.95;1727912;83;21215;-55
2021/01/10 04:05:07;;;;;;;43.10;25.95;;;;;;;1.63;70.88;100944.42;1727458;83;21377;-55
2021/01/10 04:08:15;;;;;;;42.38;26.07;;;;;;;1.65;70.84;100931.69;1695071;83;21367;-55
2021/01/10 04:11:22;;;;;;;44.25;25.75;;;;;;;1.66;70.84;100936.11;1727841;83;21947;-55
2021/01/10 04:14:27;;;;;;;39.03;25.77;;;;;;;1.68;70.84;100936.88;1695055;83;21407;-56
2021/01/10 04:17:33;;;;;;;41.02;25.45;;;;;;;1.72;70.86;100937.02;1727866;83;21358;-55
2021/01/10 04:20:39;;;;;;;41.83;26.02;;;;;;;1.74;70.78;100936.44;1727890;83;21346;-56
2021/01/10 04:23:45;;;;;;;44.15;26.62;;;;;;;1.72;70.70;100933.85;1712288;82;21240;-54
2021/01/10 04:26:56;;;;;;;42.78;27.00;;;;;;;1.71;70.73;100931.26;1727534;83;21381;-54
2021/01/10 04:30:03;;;;;;;44.05;25.85;;;;;;;1.69;70.80;100943.52;1727005;82;21429;-55
2021/01/10 04:33:10;;;;;;;42.30;26.25;;;;;;;1.73;70.85;100945.52;1695202;83;21229;-54
2021/01/10 04:36:16;;;;;;;45.25;27.90;;;;;;;1.75;70.82;100946.25;1727816;83;21369;-57
2021/01/10 04:39:23;;;;;;;47.10;27.27;;;;;;;1.78;70.81;100952.78;1694915;83;21742;-56
2021/01/10 04:42:30;;;;;;;41.02;26.00;;;;;;;1.79;70.79;100955.88;1727810;83;21227;-55
2021/01/10 04:45:35;;;;;;;44.08;26.25;;;;;;;1.80;70.77;100953.55;1727547;83;21962;-55
2021/01/10 04:48:39;;;;;;;39.95;25.05;;;;;;;1.78;70.78;100959.53;1695055;83;21284;-55
2021/01/10 04:51:46;;;;;;;39.40;25.68;;;;;;;1.77;70.77;100953.77;1727465;83;21362;-55
2021/01/10 04:54:50;;;;;;;40.80;24.72;;;;;;;1.72;70.81;100958.61;1726751;81;21757;-56
2021/01/10 04:57:57;;;;;;;40.80;24.57;;;;;;;1.63;70.89;100961.48;1727420;81;21336;-55
2021/01/10 05:01:06;;;;;;;40.00;25.32;;;;;;;1.53;70.95;100961.25;1694469;84;21721;-56
2021/01/10 05:04:12;;;;;;;39.53;24.55;;;;;;;1.41;71.13;100967.45;1655910;85;21252;-55
2021/01/10 05:07:17;;;;;;;41.42;24.77;;;;;;;1.32;71.29;100961.34;1712371;83;21283;-55
2021/01/10 05:10:23;;;;;;;45.03;26.40;;;;;;;1.28;71.44;100958.95;1712324;84;21223;-55
2021/01/10 05:13:28;;;;;;;42.98;25.62;;;;;;;1.24;71.53;100962.34;1726422;81;21401;-55
2021/01/10 05:16:38;;;;;;;39.33;24.30;;;;;;;1.19;71.60;100960.43;1722810;82;21394;-56
2021/01/10 05:19:43;;;;;;;38.60;24.00;;;;;;;1.13;71.67;100970.28;1687761;83;21221;-56
2021/01/10 05:22:48;;;;;;;40.50;25.35;;;;;;;1.09;71.80;100974.16;1645312;85;21279;-56
2021/01/10 05:25:53;;;;;;;53.20;32.00;;;;;;;1.05;71.83;100983.41;1713288;83;21220;-54
2021/01/10 05:28:58;;;;;;;53.63;30.40;;;;;;;0.99;71.85;100986.50;1687923;83;21205;-54
2021/01/10 05:32:04;;;;;;;48.30;29.87;;;;;;;0.95;71.98;100991.70;1712601;83;21279;-56
2021/01/10 05:35:10;;;;;;;54.08;31.17;;;;;;;0.92;72.10;100994.59;1688373;84;21277;-54
2021/01/10 05:38:15;;;;;;;45.95;27.58;;;;;;;0.93;72.15;100995.47;1712594;82;21243;-55
2021/01/10 05:41:23;;;;;;;44.53;26.85;;;;;;;0.94;72.13;101010.20;1712472;84;21219;-55
2021/01/10 05:44:28;;;;;;;43.08;25.17;;;;;;;0.94;72.10;101010.66;1712287;82;21235;-55
2021/01/10 05:47:37;;;;;;;42.78;25.90;;;;;;;0.93;72.07;101024.65;1711935;83;21239;-55
2021/01/10 05:50:42;;;;;;;44.45;26.80;;;;;;;0.90;72.08;101014.54;1715271;83;21366;-54
2021/01/10 05:53:50;;;;;;;43.17;26.55;;;;;;;0.92;72.13;101026.94;1688261;83;21220;-55
2021/01/10 05:56:55;;;;;;;42.43;26.20;;;;;;;0.95;72.07;101046.11;1712803;83;21288;-54
2021/01/10 06:00:01;;;;;;;45.83;27.67;;;;;;;0.97;71.97;101040.11;1698833;83;21442;-56
2021/01/10 06:03:08;;;;;;;42.53;26.70;;;;;;;1.02;71.90;101045.60;1712228;82;21580;-54
2021/01/10 06:06:14;;;;;;;43.75;28.12;;;;;;;1.10;71.85;101045.97;1712993;83;21345;-54
2021/01/10 06:09:21;;;;;;;48.83;27.13;;;;;;;1.22;71.72;101053.25;1687765;83;21404;-55
2021/01/10 06:12:32;;;;;;;47.98;29.20;;;;;;;1.30;71.52;101059.00;1713073;83;21221;-55
2021/01/10 06:15:40;;;;;;;47.43;28.65;;;;;;;1.33;71.40;101064.19;1712484;83;21216;-54
2021/01/10 06:18:45;;;;;;;52.95;31.45;;;;;;;1.45;71.18;101063.87;1711669;82;21235;-54
2021/01/10 06:21:54;;;;;;;48.50;29.80;;;;;;;1.50;70.96;101066.66;1711612;82;21315;-54
2021/01/10 06:25:01;;;;;;;46.18;27.13;;;;;;;1.60;70.75;101070.09;1712230;83;21228;-54
2021/01/10 06:28:15;;;;;;;49.18;27.95;;;;;;;1.68;70.48;101069.09;1717199;83;21437;-55
2021/01/10 06:31:22;;;;;;;42.93;26.87;;;;;;;1.76;70.17;101074.84;1657657;86;21216;-55
2021/01/10 06:34:28;;;;;;;47.62;25.57;;;;;;;1.81;69.98;101069.50;1662322;86;21390;-56
2021/01/10 06:37:34;;;;;;;39.63;25.30;;;;;;;1.91;69.77;101072.44;1712643;83;21252;-55
2021/01/10 06:40:43;;;;;;;39.55;25.90;;;;;;;1.96;69.58;101066.25;1711716;83;21789;-54
2021/01/10 06:43:50;;;;;;;42.90;26.02;;;;;;;2.04;69.38;101070.64;1711537;83;21323;-55
2021/01/10 06:47:00;;;;;;;43.87;26.10;;;;;;;2.04;69.27;101076.04;1711881;83;21201;-54
2021/01/10 06:50:05;;;;;;;53.75;28.20;;;;;;;2.03;69.32;101079.72;1711689;83;21207;-55
2021/01/10 06:53:21;;;;;;;51.40;30.12;;;;;;;1.96;69.25;101083.80;1710874;83;21220;-55
2021/01/10 06:56:26;;;;;;;67.82;36.28;;;;;;;1.92;69.40;101091.23;1711694;83;21217;-55
2021/01/10 06:59:34;;;;;;;93.00;47.67;;;;;;;1.91;69.52;101094.91;1713020;83;21248;-55
2021/01/10 07:02:40;;;;;;;58.55;34.05;;;;;;;1.97;69.57;101097.19;1712383;83;21212;-56
2021/01/10 07:06:14;;;;;;;49.50;30.27;;;;;;;2.06;69.54;101100.60;1670364;84;21767;-56
2021/01/10 07:09:19;;;;;;;43.80;28.15;;;;;;;2.14;69.42;101100.10;1686581;85;21232;-55
2021/01/10 07:12:29;;;;;;;43.42;26.42;;;;;;;2.25;69.31;101104.28;1717266;83;21228;-56
2021/01/10 07:15:34;;;;;;;46.02;27.95;;;;;;;2.32;69.15;101102.39;1717204;83;21354;-54
2021/01/10 07:18:40;;;;;;;40.38;25.97;;;;;;;2.37;68.94;101106.12;1712236;81;21402;-55
2021/01/10 07:21:55;;;;;;;40.40;25.12;;;;;;;2.42;68.85;101107.55;1683962;83;21218;-54
2021/01/10 07:25:00;;;;;;;44.85;26.17;;;;;;;2.41;68.47;101103.60;1711852;82;21276;-54
2021/01/10 07:28:05;;;;;;;44.80;26.23;;;;;;;2.33;68.57;101114.07;1711866;82;21213;-54
2021/01/10 07:31:18;;;;;;;61.75;43.02;;;;;;;2.32;68.70;101110.50;1696476;83;21326;-55
2021/01/10 07:34:23;;;;;;;44.90;28.90;;;;;;;2.30;68.76;101115.13;1711849;82;21208;-55
2021/01/10 07:37:36;;;;;;;46.45;27.90;;;;;;;2.27;68.89;101115.81;1676985;84;21217;-55
2021/01/10 07:40:41;;;;;;;47.80;32.98;;;;;;;2.26;69.07;101110.92;1622006;88;21301;-55
2021/01/10 07:44:02;;;;;;;41.10;26.90;;;;;;;2.27;69.10;101119.87;1687967;85;21336;-55
2021/01/10 07:47:07;;;;;;;39.67;27.42;;;;;;;2.25;69.24;101117.78;1673712;84;21260;-56
2021/01/10 07:50:25;;;;;;;47.40;31.35;;;;;;;2.27;69.36;101122.09;1623209;86;21300;-55
2021/01/10 07:53:33;;;;;;;42.60;27.07;;;;;;;2.31;69.47;101121.41;1714216;83;21225;-56
2021/01/10 07:56:39;;;;;;;43.65;27.25;;;;;;;2.37;69.46;101118.28;1693591;83;21403;-56
2021/01/10 07:59:44;;;;;;;45.52;27.05;;;;;;;2.37;69.51;101118.28;1714774;83;21194;-55
2021/01/10 08:03:10;;;;;;;40.52;26.80;;;;;;;2.40;69.61;101126.16;1714726;83;21222;-56
2021/01/10 08:06:17;;;;;;;42.70;28.17;;;;;;;2.47;69.65;101126.13;1714671;83;21214;-56
2021/01/10 08:09:24;;;;;;;44.00;28.80;;;;;;;2.56;69.63;101129.06;1714665;83;21217;-56
2021/01/10 08:12:40;;;;;;;55.12;31.30;;;;;;;2.63;69.59;101128.99;1715128;83;21692;-56
2021/01/10 08:15:54;;;;;;;42.10;27.02;;;;;;;2.69;69.39;101131.77;1714945;83;21246;-56
2021/01/10 08:19:00;;;;;;;48.28;29.77;;;;;;;2.76;69.42;101127.64;1714981;83;21285;-56
2021/01/10 08:22:15;;;;;;;44.65;28.77;;;;;;;2.83;69.24;101127.12;1714476;83;21202;-56
2021/01/10 08:25:28;;;;;;;;;;;;;;;2.93;69.30;101122.77;1717268;83;21732;-56
2021/01/10 08:28:33;;;;;;;44.58;27.75;;;;;;;3.07;68.96;101124.50;1713902;83;20212;-56
2021/01/10 08:31:40;;;;;;;48.85;30.85;;;;;;;3.12;68.74;101121.46;1714555;83;21194;-56
2021/01/10 08:35:01;;;;;;;47.62;30.10;;;;;;;3.21;68.67;101118.08;1714618;83;21207;-56
2021/01/10 08:38:07;;;;;;;50.63;29.37;;;;;;;3.29;68.38;101116.56;1714577;83;21569;-55
2021/01/10 08:41:12;;;;;;;46.85;28.23;;;;;;;3.33;68.12;101119.91;1713926;83;21226;-56
2021/01/10 08:44:25;;;;;;;67.53;35.92;;;;;;;3.34;67.96;101112.16;1714572;83;21269;-55
2021/01/10 08:47:31;;;;;;;61.50;35.38;;;;;;;3.34;67.84;101099.51;1714285;83;21186;-56
2021/01/10 08:50:48;;;;;;;63.15;33.48;;;;;;;3.36;67.86;101098.91;1714559;83;21194;-56
2021/01/10 08:53:53;;;;;;;60.03;33.45;;;;;;;3.39;67.88;101100.04;1714653;83;21669;-56
2021/01/10 08:57:00;;;;;;;63.02;37.73;;;;;;;3.47;67.90;101084.58;1714629;82;21754;-55
2021/01/10 09:00:08;;;;;;;49.90;30.40;;;;;;;3.50;67.72;101077.10;1714390;83;21186;-56
2021/01/10 09:03:25;;;;;;;57.50;33.50;;;;;;;3.51;67.69;101078.82;1695326;83;21214;-56
2021/01/10 09:06:35;;;;;;;49.83;30.85;;;;;;;3.47;67.45;101079.17;1690019;83;21770;-55
2021/01/10 09:10:00;;;;;;;59.53;33.35;;;;;;;3.42;67.58;101082.70;1621945;88;21233;-56
2021/01/10 09:13:09;;;;;;;61.28;35.23;;;;;;;3.39;67.59;101081.58;1687913;85;21386;-56
2021/01/10 09:16:14;;;;;;;64.45;36.20;;;;;;;3.36;67.73;101075.91;1674798;84;21291;-56
2021/01/10 09:19:20;;;;;;;63.70;35.70;;;;;;;3.38;67.85;101072.59;1622649;88;21253;-57
2021/01/10 09:22:26;;;;;;;52.60;30.90;;;;;;;3.40;67.83;101072.47;1681869;84;21809;-56
2021/01/10 09:25:33;;;;;;;47.70;28.27;;;;;;;3.42;67.79;101068.69;1687901;84;21259;-56
2021/01/10 09:28:41;;;;;;;53.40;30.55;;;;;;;3.43;67.67;101069.05;1686575;83;21221;-56
2021/01/10 09:31:55;;;;;;;54.60;30.23;;;;;;;3.45;67.79;101065.75;1716135;83;21860;-56
2021/01/10 09:35:04;;;;;;;53.90;32.13;;;;;;;3.53;67.78;101057.92;1685279;83;21392;-56
2021/01/10 09:38:22;;;;;;;45.50;28.67;;;;;;;3.61;67.67;101066.34;1717472;82;21381;-55
2021/01/10 09:41:28;;;;;;;47.13;29.23;;;;;;;3.63;67.39;101060.81;1657399;86;21391;-56
2021/01/10 09:44:34;;;;;;;49.10;29.87;;;;;;;3.61;67.39;101056.87;1688229;83;21374;-56
2021/01/10 09:47:44;;;;;;;50.98;31.50;;;;;;;3.59;67.33;101056.59;1679136;84;21825;-57
2021/01/10 09:50:50;;;;;;;51.48;29.30;;;;;;;3.55;67.43;101047.83;1705827;84;21209;-56
2021/01/10 09:53:55;;;;;;;53.83;31.10;;;;;;;3.58;67.56;101051.69;1705348;84;21320;-56
2021/01/10 09:57:11;;;;;;;53.35;31.87;;;;;;;3.68;67.55;101055.92;1705532;84;21216;-56
2021/01/10 10:00:16;;;;;;;50.12;31.95;;;;;;;3.81;67.20;101053.98;1705849;84;21259;-56
2021/01/10 10:03:21;;;;;;;46.48;29.37;;;;;;;3.96;66.73;101053.70;1689303;84;21238;-56
2021/01/10 10:06:26;;;;;;;49.13;30.25;;;;;;;4.10;66.52;101048.08;1706376;84;21224;-55
2021/01/10 10:09:34;;;;;;;41.33;26.35;;;;;;;4.27;66.41;101045.39;1705449;84;21212;-55
2021/01/10 10:12:39;;;;;;;44.60;26.30;;;;;;;4.41;65.82;101043.34;1704596;84;21208;-56
2021/01/10 10:15:54;;;;;;;44.08;26.00;;;;;;;4.53;65.40;101045.58;1704690;84;21252;-57
2021/01/10 10:18:59;;;;;;;45.52;27.52;;;;;;;4.68;64.93;101045.70;1704948;84;21264;-56
2021/01/10 10:22:05;;;;;;;44.10;28.75;;;;;;;4.75;64.22;101052.38;1706435;80;21231;-56
2021/01/10 10:25:16;;;;;;;43.17;27.30;;;;;;;4.73;63.91;101039.91;1709695;83;21228;-56
2021/01/10 10:28:22;;;;;;;42.17;27.45;;;;;;;4.66;63.68;101041.41;1709987;82;21240;-57
2021/01/10 10:31:27;;;;;;;45.55;27.77;;;;;;;4.52;63.80;101035.22;1710344;83;21238;-56
2021/01/10 10:34:34;;;;;;;43.87;26.80;;;;;;;4.51;63.98;101040.28;1711774;83;21272;-56
2021/01/10 10:37:40;;;;;;;49.60;31.55;;;;;;;4.49;63.95;101038.17;1710730;84;21208;-57
2021/01/10 10:40:45;;;;;;;47.05;27.67;;;;;;;4.45;64.18;101045.32;1710883;83;21607;-57
2021/01/10 10:43:51;;;;;;;53.85;30.77;;;;;;;4.44;64.11;101036.31;1711258;82;21236;-58
2021/01/10 10:46:58;;;;;;;46.92;29.50;;;;;;;4.37;64.05;101039.16;1710643;83;21209;-57
2021/01/10 10:50:05;;;;;;;48.87;31.10;;;;;;;4.33;64.34;101042.20;1711881;83;21201;-56
2021/01/10 10:53:11;;;;;;;52.13;29.00;;;;;;;4.35;64.67;101041.59;1710718;83;21200;-56
2021/01/10 10:56:16;;;;;;;44.55;26.62;;;;;;;4.39;64.76;101039.88;1683756;85;21339;-55
2021/01/10 10:59:21;;;;;;;44.65;27.60;;;;;;;4.47;64.69;101037.94;1683569;84;21227;-56
2021/01/10 11:02:26;;;;;;;46.68;26.77;;;;;;;4.56;64.65;101046.21;1683989;85;21781;-57
2021/01/10 11:05:32;;;;;;;44.18;27.02;;;;;;;4.60;64.04;101040.90;1684623;85;21963;-56
2021/01/10 11:08:39;;;;;;;35.92;24.72;;;;;;;4.57;63.79;101045.70;1682700;84;21329;-56
2021/01/10 11:11:52;;;;;;;34.30;23.32;;;;;;;4.52;63.68;101044.70;1683044;85;21402;-57
2021/01/10 11:14:57;;;;;;;42.03;25.97;;;;;;;4.38;63.54;101044.06;1683187;84;21950;-56
2021/01/10 11:18:03;;;;;;;44.00;26.00;;;;;;;4.26;63.70;101047.27;1684046;84;21259;-57
2021/01/10 11:21:10;;;;;;;42.67;24.82;;;;;;;4.18;63.82;101045.64;1683172;85;21358;-57
2021/01/10 11:24:17;;;;;;;42.33;25.00;;;;;;;4.11;63.89;101059.28;1686975;83;21519;-57
2021/01/10 11:27:22;;;;;;;43.75;25.05;;;;;;;4.05;64.05;101059.76;1685980;85;21259;-56
2021/01/10 11:30:28;;;;;;;42.48;26.37;;;;;;;4.04;64.10;101068.84;1686172;85;21259;-56
2021/01/10 11:33:35;;;;;;;42.55;26.33;;;;;;;4.02;64.13;101062.70;1688688;83;21351;-57
2021/01/10 11:36:42;;;;;;;46.00;28.47;;;;;;;4.03;64.32;101060.84;1712562;83;21201;-56
2021/01/10 11:39:48;;;;;;;51.80;30.82;;;;;;;4.04;64.52;101063.42;1691355;83;21356;-56
2021/01/10 11:42:56;;;;;;;63.10;36.80;;;;;;;4.12;64.70;101060.98;1710776;82;21220;-57
2021/01/10 11:46:01;;;;;;;49.27;30.08;;;;;;;4.29;64.56;101060.58;1711930;84;21312;-56
2021/01/10 11:49:07;;;;;;;66.70;38.70;;;;;;;4.49;64.27;101069.35;1714334;82;21220;-57
2021/01/10 11:52:13;;;;;;;62.75;37.58;;;;;;;4.71;63.69;101069.02;1692577;85;21419;-56
2021/01/10 11:55:19;;;;;;;42.67;24.80;;;;;;;4.82;63.01;101064.44;1712280;84;21232;-57
2021/01/10 11:58:24;;;;;;;52.27;30.82;;;;;;;4.82;62.46;101073.09;1714477;82;21232;-55
2021/01/10 12:01:38;;;;;;;51.88;30.50;;;;;;;4.72;62.40;101071.61;1692527;85;21339;-56
2021/01/10 12:04:44;;;;;;;45.40;26.05;;;;;;;4.65;62.34;101075.78;1712097;82;21861;-57
2021/01/10 12:07:50;;;;;;;41.33;26.17;;;;;;;4.50;62.30;101072.42;1692150;85;21328;-57
2021/01/10 12:10:59;;;;;;;44.13;27.48;;;;;;;4.36;62.32;101061.80;1712783;83;21287;-56
2021/01/10 12:14:04;;;;;;;44.58;25.12;;;;;;;4.32;62.35;101072.52;1712388;84;21235;-56
2021/01/10 12:17:10;;;;;;;41.83;26.85;;;;;;;4.36;62.60;101073.16;1714150;83;21279;-57
2021/01/10 12:20:19;;;;;;;38.83;25.68;;;;;;;4.47;62.82;101079.44;1666574;85;21248;-56
2021/01/10 12:23:26;;;;;;;41.00;25.55;;;;;;;4.52;62.84;101087.21;1710527;83;21545;-57
2021/01/10 12:26:34;;;;;;;34.95;23.05;;;;;;;4.52;62.63;101089.44;1711017;83;21243;-56
2021/01/10 12:29:40;;;;;;;42.70;26.65;;;;;;;4.57;62.69;101099.44;1712060;82;21801;-56
2021/01/10 12:32:45;;;;;;;43.08;25.43;;;;;;;4.57;62.44;101092.66;1687364;83;21193;-56
2021/01/10 12:35:50;;;;;;;40.78;23.85;;;;;;;4.54;62.45;101099.68;1681830;85;21374;-56
2021/01/10 12:38:55;;;;;;;35.00;22.87;;;;;;;4.49;62.69;101096.45;1711735;82;21279;-57
2021/01/10 12:42:02;;;;;;;39.25;23.98;;;;;;;4.42;62.50;101101.13;1687018;85;21798;-56
2021/01/10 12:45:08;;;;;;;42.78;24.98;;;;;;;4.34;62.51;101107.13;1682094;85;21272;-56
2021/01/10 12:48:14;;;;;;;39.67;24.37;;;;;;;4.27;62.51;101108.59;1710560;82;21352;-57
2021/01/10 12:51:19;;;;;;;40.10;24.07;;;;;;;4.28;62.76;101102.19;1711435;83;21287;-57
2021/01/10 12:54:24;;;;;;;40.90;24.72;;;;;;;4.32;63.02;101105.53;1710867;82;21247;-57
2021/01/10 12:57:31;;;;;;;37.23;23.70;;;;;;;4.32;63.14;101105.05;1686663;85;21189;-56
2021/01/10 13:00:35;;;;;;;37.10;23.30;;;;;;;4.34;63.10;101106.28;1680939;85;21796;-56
2021/01/10 13:03:42;;;;;;;40.90;25.50;;;;;;;4.38;62.98;101099.14;1711528;82;21200;-57
2021/01/10 13:06:49;;;;;;;36.53;23.52;;;;;;;4.46;62.99;101099.41;1686860;85;22092;-56
2021/01/10 13:09:54;;;;;;;40.88;25.90;;;;;;;4.56;62.89;101105.86;1682091;84;21375;-56
2021/01/10 13:13:00;;;;;;;36.25;24.52;;;;;;;4.68;62.80;101100.45;1712091;82;21227;-56
2021/01/10 13:16:06;;;;;;;42.70;25.30;;;;;;;4.79;62.46;101099.95;1686915;85;21186;-56
2021/01/10 13:19:11;;;;;;;62.55;35.13;;;;;;;4.78;62.09;101105.50;1682661;84;21366;-56
2021/01/10 13:22:17;;;;;;;47.45;28.02;;;;;;;4.76;62.16;101108.33;1712504;83;21276;-56
2021/01/10 13:25:24;;;;;;;37.75;23.47;;;;;;;4.73;62.20;101113.12;1689322;81;21213;-55
2021/01/10 13:28:30;;;;;;;35.00;23.07;;;;;;;4.71;62.07;101106.98;1718193;83;21394;-56
2021/01/10 13:31:42;;;;;;;35.92;22.58;;;;;;;4.59;62.12;101106.97;1714156;83;21276;-56
2021/01/10 13:34:48;;;;;;;47.78;28.02;;;;;;;4.48;62.41;101108.78;1685399;83;21243;-57
2021/01/10 13:37:57;;;;;;;47.08;28.12;;;;;;;4.40;62.80;101105.32;1685388;83;21212;-57
2021/01/10 13:41:02;;;;;;;62.27;38.75;;;;;;;4.39;63.09;101103.57;1685710;85;21225;-56
2021/01/10 13:44:08;;;;;;;56.08;36.05;;;;;;;4.34;63.27;101112.55;1684741;83;21249;-57
2021/01/10 13:47:14;;;;;;;50.28;31.75;;;;;;;4.27;63.68;101111.30;1679155;85;21370;-57
2021/01/10 13:50:20;;;;;;;43.23;27.77;;;;;;;4.22;63.95;101119.41;1686107;85;21247;-57
2021/01/10 13:53:26;;;;;;;42.60;26.40;;;;;;;4.15;64.27;101122.23;1702921;83;21741;-56
2021/01/10 13:56:32;;;;;;;42.23;25.60;;;;;;;4.02;64.72;101118.23;1677475;85;21341;-57
2021/01/10 13:59:39;;;;;;;43.25;26.70;;;;;;;3.95;65.23;101119.67;1673514;84;21738;-56
2021/01/10 14:02:44;;;;;;;39.85;24.47;;;;;;;3.90;65.60;101128.63;1629864;86;21363;-57
2021/01/10 14:05:51;;;;;;;56.37;37.83;;;;;;;3.80;66.00;101126.73;1629791;88;21308;-57
2021/01/10 14:08:56;;;;;;;44.48;28.27;;;;;;;3.75;66.38;101139.27;1677693;84;21348;-56
2021/01/10 14:12:01;;;;;;;36.10;21.57;;;;;;;3.73;66.74;101156.10;1683477;84;21861;-56
2021/01/10 14:15:08;;;;;;;19.62;11.18;;;;;;;3.58;67.04;101159.95;1712325;83;21271;-57
2021/01/10 14:18:13;;;;;;;18.15;11.88;;;;;;;3.40;67.09;101169.41;1691883;83;21427;-56
2021/01/10 14:21:33;;;;;;;24.35;14.05;;;;;;;3.24;67.35;101168.78;1718943;83;21243;-56